Metar Cercanos

 

LEPA - Palma De Mallorc, Spain
Distance from station: ONO 38km
Actualización: Thu, 07-Jul-2022 7:00pm CEST
Few Clouds
Few Clouds
 Viento del SSO
Viento: SSO 20 km/h
Temperatura: 29°C
Indice Calor: 29°C
Rocío: 17°C
Humedad: 48%
Barómetro: 1020 hPa
Clouds: Few Clouds
Visibility: 10 km
Cloud details: Few Clouds 762 m
2022/07/07 17:00 LEPA 071700Z 21011KT 9999 FEW025 29/17 Q1020 NOSIG
LEMH - Mahon/Menorca Is, Spain
Distance from station: ENE 105km
Actualización: Thu, 07-Jul-2022 6:30pm CEST
Few Clouds
Few Clouds
 Viento del NNO
Viento: NNO 15 km/h
Temperatura: 28°C
Indice Calor: 28°C
Rocío: 17°C
Humedad: 51%
Barómetro: 1020 hPa
Clouds: Few Clouds
Visibility: 10 km
Cloud details: Few Clouds 457 m
2022/07/07 16:30 LEMH 071630Z 34008KT 310V030 9999 FEW015 28/17 Q1020
 
LEIB - Ibiza/Es Codola, Spain
Distance from station: OSO 165km
Actualización: Thu, 07-Jul-2022 7:00pm CEST
Few Clouds
Few Clouds
 Viento del E
Viento: E 15 km/h
Temperatura: 27°C
Indice Calor: 29°C
Rocío: 20°C
Humedad: 66%
Barómetro: 1020 hPa
Clouds: Few Clouds
Visibility: 10 km
Cloud details: Few Clouds 1067 m
2022/07/07 17:00 LEIB 071700Z 09008KT 050V130 9999 FEW035 27/20 Q1020 NOSIG
LEBL - Barcelona Airpor, Spain
Distance from station: NNO 225km
Actualización: Thu, 07-Jul-2022 7:00pm CEST
Few Clouds
Few Clouds
 Viento del SO
Viento: SO 22 km/h
Temperatura: 27°C
Indice Calor: 28°C
Rocío: 19°C
Humedad: 62%
Barómetro: 1019 hPa
Clouds: Few Clouds
Visibility: 10 km
Cloud details: Few Clouds 1067 m
2022/07/07 17:00 LEBL 071700Z 22012KT 9999 FEW035 27/19 Q1019 NOSIG
 
LEVC - Valencia (civ/Mi, Spain
Distance from station: NO 188km
Actualización: Thu, 07-Jul-2022 7:00pm CEST
Despejado
Despejado
 Viento del ESE
Viento: ESE 19 km/h
Temperatura: 28°C
Indice Calor: 28°C
Rocío: 17°C
Humedad: 51%
Barómetro: 1020 hPa
Resumen: Despejado
Visibility: greater than 10 km
2022/07/07 17:00 LEVC 071700Z 12010KT 080V160 CAVOK 28/17 Q1020 NOSIG
LEGE - Gerona/Costa Bra, Spain
Distance from station: N 276km
Actualización: Thu, 07-Jul-2022 7:00pm CEST
Few Clouds
Few Clouds
 Viento del E
Viento: E 22 km/h
Temperatura: 30°C
Rocío: 7°C
Humedad: 24%
Barómetro: 1019 hPa
Clouds: Few Clouds
Visibility: 10 km
Cloud details: Few Clouds 2438 m
2022/07/07 17:00 LEGE 071700Z 08012KT 050V120 9999 FEW080 30/07 Q1019
 
LEAL - Alicante/El Alte, Spain
Distance from station: OSO 344km
Actualización: Thu, 07-Jul-2022 7:00pm CEST
Despejado
Despejado
 Viento del E
Viento: E 17 km/h
Temperatura: 27°C
Indice Calor: 28°C
Rocío: 19°C
Humedad: 62%
Barómetro: 1020 hPa
Resumen: Despejado
Visibility: greater than 10 km
2022/07/07 17:00 LEAL 071700Z 09009KT CAVOK 27/19 Q1020 NOSIG
LEAM - Almeria Airport, Spain
Distance from station: SSO 56km
Actualización: Thu, 07-Jul-2022 7:00pm CEST
Few Clouds
Few Clouds
 Viento del SSE
Viento: SSE 20 km/h
Temperatura: 28°C
Indice Calor: 30°C
Rocío: 21°C
Humedad: 66%
Barómetro: 1019 hPa
Clouds: Few Clouds
Visibility: 10 km
Cloud details: Few Clouds 1219 m
2022/07/07 17:00 LEAM 071700Z 15011KT 9999 FEW040 28/21 Q1019
 
LEZG - Zaragoza (mil/Ci, Spain
Distance from station: NO 431km
Actualización: Thu, 07-Jul-2022 7:00pm CEST
Despejado
Despejado
 Viento del ONO
Viento: ONO 43 km/h, Racha: 61 km/h
Temperatura: 29°C
Indice Calor: 28°C
Rocío: 14°C
Humedad: 40%
Barómetro: 1022 hPa
Resumen: Despejado
Visibility: greater than 10 km
2022/07/07 17:00 LEZG 071700Z 30023G33KT CAVOK 29/14 Q1022
LEMD - Madrid/Barajas, Spain
Distance from station: ONO 234km
Actualización: Thu, 07-Jul-2022 7:00pm CEST
Despejado
Despejado
 Viento del NE
Viento: NE 6 km/h
Temperatura: 33°C
Rocío: 2°C
Humedad: 14%
Barómetro: 1022 hPa
Resumen: Despejado
Visibility: greater than 10 km
2022/07/07 17:00 LEMD 071700Z 04003KT CAVOK 33/02 Q1022 NOSIG
 
LEGR - Granada Airport, Spain
Distance from station: OSO 62km
Actualización: Thu, 07-Jul-2022 7:00pm CEST
Few Clouds
Few Clouds
 Viento del NNO
Viento: NNO 15 km/h
Temperatura: 36°C
Rocío: 5°C
Humedad: 14%
Barómetro: 1020 hPa
Clouds: Few Clouds
Visibility: 10 km
Cloud details: Few Clouds 2438 m
2022/07/07 17:00 LEGR 071700Z 33008KT 290V010 9999 FEW080 36/05 Q1020
LEMG - Malaga (civ/Mil), Spain
Distance from station: OSO 227km
Actualización: Thu, 07-Jul-2022 7:00pm CEST
Few Clouds
Few Clouds
 Viento del SSE
Viento: SSE 17 km/h
Temperatura: 26°C
Rocío: 22°C
Humedad: 79%
Barómetro: 1020 hPa
Clouds: Few Clouds
Visibility: 10 km
Cloud details: Few Clouds 549 m
2022/07/07 17:00 LEMG 071700Z 15009KT 9999 FEW018 26/22 Q1020 NOSIG
 
LEZL - Sevilla (civ/Mil, Spain
Distance from station: S 318km
Actualización: Thu, 07-Jul-2022 7:00pm CEST
Despejado
Despejado
 Viento del OSO
Viento: OSO 7 km/h
Temperatura: 40°C
Rocío: 5°C
Humedad: 12%
Barómetro: 1016 hPa
Resumen: Despejado
Visibility: greater than 10 km
2022/07/07 17:00 LEZL 071700Z 24004KT 150V300 CAVOK 40/05 Q1016 NOSIG
LEVT - Vitoria, Spain
Distance from station: NO 226km
Actualización: Thu, 07-Jul-2022 7:00pm CEST
Parcialmente nuboso
Parcialmente nuboso
 Viento del N
Viento: N 28 km/h
Temperatura: 22°C
Rocío: 13°C
Humedad: 57%
Barómetro: 1029 hPa
Clouds: Parcialmente nuboso
Visibility: 10 km
Cloud details: Parcialmente nuboso 1158 m
2022/07/07 17:00 LEVT 071700Z 36015KT 330V030 9999 SCT038 22/13 Q1029
 
LEBB - Bilbao/Sondica, Spain
Distance from station: NNO 235km
Actualización: Thu, 07-Jul-2022 7:00pm CEST
Parcialmente nuboso
Parcialmente nuboso
 Viento del N
Viento: N 15 km/h
Temperatura: 24°C
Rocío: 18°C
Humedad: 69%
Barómetro: 1029 hPa
Clouds: Parcialmente nuboso
Visibility: 10 km
Cloud details: Few Clouds 610 m
Parcialmente nuboso 914 m
2022/07/07 17:00 LEBB 071700Z 36008KT 330V040 9999 FEW020 SCT030 24/18 Q1029 NOSIG
LESO - San Sebastian/Fu, Spain
Distance from station: N 231km
Actualización: Thu, 07-Jul-2022 7:00pm CEST
Muy nuboso
Muy nuboso
 Viento del NO
Viento: NO 11 km/h
Temperatura: 23°C
Rocío: 19°C
Humedad: 78%
Barómetro: 1028 hPa
Clouds: Muy nuboso
Visibility: 10 km
Cloud details: Muy nuboso 671 m
2022/07/07 17:00 LESO 071700Z 31006KT 260V030 9999 BKN022 23/19 Q1028
 
LEVD - Valladolid(Mil/C, Spain
Distance from station: ONO 239km
Actualización: Thu, 07-Jul-2022 7:00pm CEST
Despejado
Despejado
 Viento del ENE
Viento: ENE 28 km/h
Temperatura: 27°C
Rocío: 7°C
Humedad: 28%
Barómetro: 1026 hPa
Resumen: Despejado
Visibility: greater than 10 km
2022/07/07 17:00 LEVD 071700Z 07015KT 050V110 CAVOK 27/07 Q1026
LESA - Salamanca (civ/M, Spain
Distance from station: ONO 349km
Actualización: Thu, 07-Jul-2022 7:00pm CEST
Despejado
Despejado
 Viento del NE
Viento: NE 15 km/h
Temperatura: 30°C
Rocío: 2°C
Humedad: 17%
Barómetro: 1026 hPa
Resumen: Despejado
Visibility: greater than 10 km
2022/07/07 17:00 LESA 071700Z 05008KT 350V110 CAVOK 30/02 Q1026
 
LEXJ - Santander/Paraya, Spain
Distance from station: NNO 247km
Actualización: Thu, 07-Jul-2022 7:00pm CEST
Few Clouds
Few Clouds
 Viento del NE
Viento: NE 9 km/h
Temperatura: 22°C
Rocío: 18°C
Humedad: 78%
Barómetro: 1029 hPa
Clouds: Few Clouds
Visibility: 10 km
Cloud details: Few Clouds 853 m
2022/07/07 17:00 LEXJ 071700Z 05005KT 330V130 9999 FEW028 22/18 Q1029
LEAS - Asturias/Aviles, Spain
Distance from station: NO 214km
Actualización: Thu, 07-Jul-2022 7:00pm CEST
Muy nuboso
Muy nuboso
 Viento del ENE
Viento: ENE 13 km/h
Temperatura: 20°C
Rocío: 17°C
Humedad: 83%
Barómetro: 1029 hPa
Clouds: Muy nuboso
Visibility: 10 km
Cloud details: Few Clouds 366 m
Parcialmente nuboso 518 m
Muy nuboso 579 m
2022/07/07 17:00 LEAS 071700Z 07007KT 020V120 9999 FEW012 SCT017 BKN019 20/17 Q1029 NOSIG
 
LECO - La Coruna/Alvedr, Spain
Distance from station: ONO 222km
Actualización: Thu, 07-Jul-2022 7:00pm CEST
Despejado
Despejado
 Viento del NNE
Viento: NNE 17 km/h
Temperatura: 25°C
Rocío: 15°C
Humedad: 54%
Barómetro: 1026 hPa
Resumen: Despejado
Visibility: greater than 10 km
2022/07/07 17:00 LECO 071700Z 02009KT 320V060 CAVOK 25/15 Q1026 NOSIG
LEVX - Vigo/Peinador, Spain
Distance from station: O 214km
Actualización: Thu, 07-Jul-2022 7:00pm CEST
Despejado
Despejado
 Viento del N
Viento: N 9 km/h
Temperatura: 32°C
Rocío: 12°C
Humedad: 29%
Barómetro: 1023 hPa
Resumen: Despejado
Visibility: greater than 10 km
2022/07/07 17:00 LEVX 071700Z 35005KT 290V040 CAVOK 32/12 Q1023 NOSIG